sensor_id;sensor_type;location;lat;lon;timestamp;temperature;humidity
5792;DHT22;2922;53.482;10.006;2023-11-19T00:02:07;5.40;99.90
5792;DHT22;2922;53.482;10.006;2023-11-19T00:04:36;5.40;99.90
5792;DHT22;2922;53.482;10.006;2023-11-19T00:07:04;5.40;99.90
5792;DHT22;2922;53.482;10.006;2023-11-19T00:09:34;5.40;99.90
5792;DHT22;2922;53.482;10.006;2023-11-19T00:12:02;5.40;99.90
5792;DHT22;2922;53.482;10.006;2023-11-19T00:14:28;5.40;99.90
5792;DHT22;2922;53.482;10.006;2023-11-19T00:16:54;5.40;99.90
5792;DHT22;2922;53.482;10.006;2023-11-19T00:19:20;5.50;99.90
5792;DHT22;2922;53.482;10.006;2023-11-19T00:21:45;5.50;99.90
5792;DHT22;2922;53.482;10.006;2023-11-19T00:24:11;5.50;99.90
5792;DHT22;2922;53.482;10.006;2023-11-19T00:26:38;5.50;99.90
5792;DHT22;2922;53.482;10.006;2023-11-19T00:29:04;5.50;99.90
5792;DHT22;2922;53.482;10.006;2023-11-19T00:31:29;5.50;99.90
5792;DHT22;2922;53.482;10.006;2023-11-19T00:33:55;5.50;99.90
5792;DHT22;2922;53.482;10.006;2023-11-19T00:36:20;5.50;99.90
5792;DHT22;2922;53.482;10.006;2023-11-19T00:38:46;5.50;99.90
5792;DHT22;2922;53.482;10.006;2023-11-19T00:41:12;5.50;99.90
5792;DHT22;2922;53.482;10.006;2023-11-19T00:43:37;5.50;99.90
5792;DHT22;2922;53.482;10.006;2023-11-19T00:46:06;5.50;99.90
5792;DHT22;2922;53.482;10.006;2023-11-19T00:48:32;5.50;99.90
5792;DHT22;2922;53.482;10.006;2023-11-19T00:50:58;5.50;99.90
5792;DHT22;2922;53.482;10.006;2023-11-19T00:53:23;5.50;99.90
5792;DHT22;2922;53.482;10.006;2023-11-19T00:55:49;5.50;99.90
5792;DHT22;2922;53.482;10.006;2023-11-19T00:58:14;5.50;99.90
5792;DHT22;2922;53.482;10.006;2023-11-19T01:00:40;5.50;99.90
5792;DHT22;2922;53.482;10.006;2023-11-19T01:03:05;5.50;99.90
5792;DHT22;2922;53.482;10.006;2023-11-19T01:05:32;5.50;99.90
5792;DHT22;2922;53.482;10.006;2023-11-19T01:07:58;5.50;99.90
5792;DHT22;2922;53.482;10.006;2023-11-19T01:10:24;5.50;99.90
5792;DHT22;2922;53.482;10.006;2023-11-19T01:12:51;5.60;99.90
5792;DHT22;2922;53.482;10.006;2023-11-19T01:15:17;5.60;99.90
5792;DHT22;2922;53.482;10.006;2023-11-19T01:17:44;5.50;99.90
5792;DHT22;2922;53.482;10.006;2023-11-19T01:20:10;5.60;99.90
5792;DHT22;2922;53.482;10.006;2023-11-19T01:22:38;5.60;99.90
5792;DHT22;2922;53.482;10.006;2023-11-19T01:25:04;5.60;99.90
5792;DHT22;2922;53.482;10.006;2023-11-19T01:27:31;5.60;99.90
5792;DHT22;2922;53.482;10.006;2023-11-19T01:29:56;5.60;99.90
5792;DHT22;2922;53.482;10.006;2023-11-19T01:32:22;5.60;99.90
5792;DHT22;2922;53.482;10.006;2023-11-19T01:34:49;5.60;99.90
5792;DHT22;2922;53.482;10.006;2023-11-19T01:37:15;5.60;99.90
5792;DHT22;2922;53.482;10.006;2023-11-19T01:39:43;5.60;99.90
5792;DHT22;2922;53.482;10.006;2023-11-19T01:42:10;5.60;99.90
5792;DHT22;2922;53.482;10.006;2023-11-19T01:44:37;5.60;99.90
5792;DHT22;2922;53.482;10.006;2023-11-19T01:47:03;5.60;99.90
5792;DHT22;2922;53.482;10.006;2023-11-19T01:49:30;5.60;99.90
5792;DHT22;2922;53.482;10.006;2023-11-19T01:51:57;5.60;99.90
5792;DHT22;2922;53.482;10.006;2023-11-19T01:54:23;5.60;99.90
5792;DHT22;2922;53.482;10.006;2023-11-19T01:56:49;5.60;99.90
5792;DHT22;2922;53.482;10.006;2023-11-19T01:59:14;5.60;99.90
5792;DHT22;2922;53.482;10.006;2023-11-19T02:01:41;5.70;99.90
5792;DHT22;2922;53.482;10.006;2023-11-19T02:04:08;5.70;99.90
5792;DHT22;2922;53.482;10.006;2023-11-19T02:06:38;5.70;99.90
5792;DHT22;2922;53.482;10.006;2023-11-19T02:09:06;5.70;99.90
5792;DHT22;2922;53.482;10.006;2023-11-19T02:11:34;5.70;99.90
5792;DHT22;2922;53.482;10.006;2023-11-19T02:14:00;5.70;99.90
5792;DHT22;2922;53.482;10.006;2023-11-19T02:16:26;5.70;99.90
5792;DHT22;2922;53.482;10.006;2023-11-19T02:18:51;5.70;99.90
5792;DHT22;2922;53.482;10.006;2023-11-19T02:21:17;5.70;99.90
5792;DHT22;2922;53.482;10.006;2023-11-19T02:23:43;5.70;99.90
5792;DHT22;2922;53.482;10.006;2023-11-19T02:26:18;5.70;99.90
5792;DHT22;2922;53.482;10.006;2023-11-19T02:28:46;5.70;99.90
5792;DHT22;2922;53.482;10.006;2023-11-19T02:31:12;5.80;99.90
5792;DHT22;2922;53.482;10.006;2023-11-19T02:33:38;5.80;99.90
5792;DHT22;2922;53.482;10.006;2023-11-19T02:36:05;5.80;99.90
5792;DHT22;2922;53.482;10.006;2023-11-19T02:38:32;5.80;99.90
5792;DHT22;2922;53.482;10.006;2023-11-19T02:40:58;5.80;99.90
5792;DHT22;2922;53.482;10.006;2023-11-19T02:43:24;5.80;99.90
5792;DHT22;2922;53.482;10.006;2023-11-19T02:45:50;5.80;99.90
5792;DHT22;2922;53.482;10.006;2023-11-19T02:48:16;5.80;99.90
5792;DHT22;2922;53.482;10.006;2023-11-19T02:50:44;5.80;99.90
5792;DHT22;2922;53.482;10.006;2023-11-19T02:53:10;5.80;99.90
5792;DHT22;2922;53.482;10.006;2023-11-19T02:55:36;5.90;99.90
5792;DHT22;2922;53.482;10.006;2023-11-19T02:58:04;5.90;99.90
5792;DHT22;2922;53.482;10.006;2023-11-19T03:00:45;5.90;99.90
5792;DHT22;2922;53.482;10.006;2023-11-19T03:03:19;5.90;99.90
5792;DHT22;2922;53.482;10.006;2023-11-19T03:05:48;5.90;99.90
5792;DHT22;2922;53.482;10.006;2023-11-19T03:08:17;5.90;99.90
5792;DHT22;2922;53.482;10.006;2023-11-19T03:10:43;5.90;99.90
5792;DHT22;2922;53.482;10.006;2023-11-19T03:13:12;5.90;99.90
5792;DHT22;2922;53.482;10.006;2023-11-19T03:15:39;5.90;99.90
5792;DHT22;2922;53.482;10.006;2023-11-19T03:18:05;5.90;99.90
5792;DHT22;2922;53.482;10.006;2023-11-19T03:20:31;5.90;99.90
5792;DHT22;2922;53.482;10.006;2023-11-19T03:22:56;6.00;99.90
5792;DHT22;2922;53.482;10.006;2023-11-19T03:25:27;6.00;99.90
5792;DHT22;2922;53.482;10.006;2023-11-19T03:27:58;6.00;99.90
5792;DHT22;2922;53.482;10.006;2023-11-19T03:30:24;5.90;99.90
5792;DHT22;2922;53.482;10.006;2023-11-19T03:32:50;6.00;99.90
5792;DHT22;2922;53.482;10.006;2023-11-19T03:35:16;6.00;99.90
5792;DHT22;2922;53.482;10.006;2023-11-19T03:37:42;6.00;99.90
5792;DHT22;2922;53.482;10.006;2023-11-19T03:40:09;6.00;99.90
5792;DHT22;2922;53.482;10.006;2023-11-19T03:42:35;6.10;99.90
5792;DHT22;2922;53.482;10.006;2023-11-19T03:45:01;6.00;99.90
5792;DHT22;2922;53.482;10.006;2023-11-19T03:47:29;6.10;99.90
5792;DHT22;2922;53.482;10.006;2023-11-19T03:49:54;6.10;99.90
5792;DHT22;2922;53.482;10.006;2023-11-19T03:52:20;6.10;99.90
5792;DHT22;2922;53.482;10.006;2023-11-19T03:54:45;6.10;99.90
5792;DHT22;2922;53.482;10.006;2023-11-19T03:57:12;6.20;99.90
5792;DHT22;2922;53.482;10.006;2023-11-19T03:59:39;6.20;99.90
5792;DHT22;2922;53.482;10.006;2023-11-19T04:02:04;6.10;99.90
5792;DHT22;2922;53.482;10.006;2023-11-19T04:04:30;6.20;99.90
5792;DHT22;2922;53.482;10.006;2023-11-19T04:06:56;6.20;99.90
5792;DHT22;2922;53.482;10.006;2023-11-19T04:09:22;6.20;99.90
5792;DHT22;2922;53.482;10.006;2023-11-19T04:11:47;6.20;99.90
5792;DHT22;2922;53.482;10.006;2023-11-19T04:14:13;6.20;99.90
5792;DHT22;2922;53.482;10.006;2023-11-19T04:16:40;6.20;99.90
5792;DHT22;2922;53.482;10.006;2023-11-19T04:19:06;6.30;99.90
5792;DHT22;2922;53.482;10.006;2023-11-19T04:21:32;6.30;99.90
5792;DHT22;2922;53.482;10.006;2023-11-19T04:23:58;6.30;99.90
5792;DHT22;2922;53.482;10.006;2023-11-19T04:26:23;6.30;99.90
5792;DHT22;2922;53.482;10.006;2023-11-19T04:28:49;6.30;99.90
5792;DHT22;2922;53.482;10.006;2023-11-19T04:31:15;6.30;99.90
5792;DHT22;2922;53.482;10.006;2023-11-19T04:33:44;6.40;99.90
5792;DHT22;2922;53.482;10.006;2023-11-19T04:36:12;6.40;99.90
5792;DHT22;2922;53.482;10.006;2023-11-19T04:38:39;6.40;99.90
5792;DHT22;2922;53.482;10.006;2023-11-19T04:41:05;6.40;99.90
5792;DHT22;2922;53.482;10.006;2023-11-19T04:43:32;6.50;99.90
5792;DHT22;2922;53.482;10.006;2023-11-19T04:45:57;6.50;99.90
5792;DHT22;2922;53.482;10.006;2023-11-19T04:48:23;6.50;99.90
5792;DHT22;2922;53.482;10.006;2023-11-19T04:50:49;6.50;99.90
5792;DHT22;2922;53.482;10.006;2023-11-19T04:53:16;6.50;99.90
5792;DHT22;2922;53.482;10.006;2023-11-19T04:55:42;6.60;99.90
5792;DHT22;2922;53.482;10.006;2023-11-19T04:58:08;6.60;99.90
5792;DHT22;2922;53.482;10.006;2023-11-19T05:00:33;6.60;99.90
5792;DHT22;2922;53.482;10.006;2023-11-19T05:02:59;6.60;99.90
5792;DHT22;2922;53.482;10.006;2023-11-19T05:05:24;6.70;99.90
5792;DHT22;2922;53.482;10.006;2023-11-19T05:07:50;6.70;99.90
5792;DHT22;2922;53.482;10.006;2023-11-19T05:10:15;6.70;99.90
5792;DHT22;2922;53.482;10.006;2023-11-19T05:12:41;6.80;99.90
5792;DHT22;2922;53.482;10.006;2023-11-19T05:15:07;6.80;99.90
5792;DHT22;2922;53.482;10.006;2023-11-19T05:17:33;6.90;99.90
5792;DHT22;2922;53.482;10.006;2023-11-19T05:19:59;7.00;99.90
5792;DHT22;2922;53.482;10.006;2023-11-19T05:22:25;7.20;99.90
5792;DHT22;2922;53.482;10.006;2023-11-19T05:24:51;7.50;99.90
5792;DHT22;2922;53.482;10.006;2023-11-19T05:27:17;7.80;99.90
5792;DHT22;2922;53.482;10.006;2023-11-19T05:29:43;8.10;99.90
5792;DHT22;2922;53.482;10.006;2023-11-19T05:32:09;8.30;99.90
5792;DHT22;2922;53.482;10.006;2023-11-19T05:34:35;8.60;99.90
5792;DHT22;2922;53.482;10.006;2023-11-19T05:37:01;8.70;99.90
5792;DHT22;2922;53.482;10.006;2023-11-19T05:39:27;8.80;99.90
5792;DHT22;2922;53.482;10.006;2023-11-19T05:41:53;8.90;99.90
5792;DHT22;2922;53.482;10.006;2023-11-19T05:44:18;9.10;99.90
5792;DHT22;2922;53.482;10.006;2023-11-19T05:46:44;9.30;99.90
5792;DHT22;2922;53.482;10.006;2023-11-19T05:49:11;9.30;99.90
5792;DHT22;2922;53.482;10.006;2023-11-19T05:51:40;9.40;99.90
5792;DHT22;2922;53.482;10.006;2023-11-19T05:54:09;9.50;99.90
5792;DHT22;2922;53.482;10.006;2023-11-19T05:56:36;9.60;99.90
5792;DHT22;2922;53.482;10.006;2023-11-19T05:59:02;9.70;99.90
5792;DHT22;2922;53.482;10.006;2023-11-19T06:01:29;9.70;99.90
5792;DHT22;2922;53.482;10.006;2023-11-19T06:03:55;9.80;99.90
5792;DHT22;2922;53.482;10.006;2023-11-19T06:06:20;9.90;99.90
5792;DHT22;2922;53.482;10.006;2023-11-19T06:08:46;10.00;99.90
5792;DHT22;2922;53.482;10.006;2023-11-19T06:11:12;10.00;99.90
5792;DHT22;2922;53.482;10.006;2023-11-19T06:13:44;10.20;99.90
5792;DHT22;2922;53.482;10.006;2023-11-19T06:16:10;10.20;99.90
5792;DHT22;2922;53.482;10.006;2023-11-19T06:18:38;10.20;99.90
5792;DHT22;2922;53.482;10.006;2023-11-19T06:21:04;10.30;99.90
5792;DHT22;2922;53.482;10.006;2023-11-19T06:23:30;10.40;99.90
5792;DHT22;2922;53.482;10.006;2023-11-19T06:25:55;10.40;99.90
5792;DHT22;2922;53.482;10.006;2023-11-19T06:28:21;10.50;99.90
5792;DHT22;2922;53.482;10.006;2023-11-19T06:30:46;10.50;99.90
5792;DHT22;2922;53.482;10.006;2023-11-19T06:33:15;10.50;99.90
5792;DHT22;2922;53.482;10.006;2023-11-19T06:35:41;10.60;99.90
5792;DHT22;2922;53.482;10.006;2023-11-19T06:38:06;10.60;99.90
5792;DHT22;2922;53.482;10.006;2023-11-19T06:40:35;10.60;99.90
5792;DHT22;2922;53.482;10.006;2023-11-19T06:43:01;10.60;99.90
5792;DHT22;2922;53.482;10.006;2023-11-19T06:45:29;10.60;99.90
5792;DHT22;2922;53.482;10.006;2023-11-19T06:47:54;10.60;99.90
5792;DHT22;2922;53.482;10.006;2023-11-19T06:50:20;10.70;99.90
5792;DHT22;2922;53.482;10.006;2023-11-19T06:52:46;10.70;99.90
5792;DHT22;2922;53.482;10.006;2023-11-19T06:55:12;10.80;99.90
5792;DHT22;2922;53.482;10.006;2023-11-19T06:57:37;10.80;99.90
5792;DHT22;2922;53.482;10.006;2023-11-19T07:00:03;10.80;99.90
5792;DHT22;2922;53.482;10.006;2023-11-19T07:02:31;10.80;99.90
5792;DHT22;2922;53.482;10.006;2023-11-19T07:04:56;10.90;99.90
5792;DHT22;2922;53.482;10.006;2023-11-19T07:07:22;10.90;99.90
5792;DHT22;2922;53.482;10.006;2023-11-19T07:09:48;10.90;99.90
5792;DHT22;2922;53.482;10.006;2023-11-19T07:12:13;11.00;99.90
5792;DHT22;2922;53.482;10.006;2023-11-19T07:14:40;11.00;99.90
5792;DHT22;2922;53.482;10.006;2023-11-19T07:17:05;11.00;99.90
5792;DHT22;2922;53.482;10.006;2023-11-19T07:19:31;11.00;99.90
5792;DHT22;2922;53.482;10.006;2023-11-19T07:21:57;11.00;99.90
5792;DHT22;2922;53.482;10.006;2023-11-19T07:24:22;11.00;99.90
5792;DHT22;2922;53.482;10.006;2023-11-19T07:26:48;11.00;99.90
5792;DHT22;2922;53.482;10.006;2023-11-19T07:29:14;11.00;99.90
5792;DHT22;2922;53.482;10.006;2023-11-19T07:31:42;11.10;99.90
5792;DHT22;2922;53.482;10.006;2023-11-19T07:34:10;11.10;99.90
5792;DHT22;2922;53.482;10.006;2023-11-19T07:36:37;11.10;99.90
5792;DHT22;2922;53.482;10.006;2023-11-19T07:39:03;11.10;99.90
5792;DHT22;2922;53.482;10.006;2023-11-19T07:41:33;11.10;99.90
5792;DHT22;2922;53.482;10.006;2023-11-19T07:43:59;11.10;99.90
5792;DHT22;2922;53.482;10.006;2023-11-19T07:46:24;11.10;99.90
5792;DHT22;2922;53.482;10.006;2023-11-19T07:48:50;11.10;99.90
5792;DHT22;2922;53.482;10.006;2023-11-19T07:51:16;11.20;99.90
5792;DHT22;2922;53.482;10.006;2023-11-19T07:53:41;11.20;99.90
5792;DHT22;2922;53.482;10.006;2023-11-19T07:56:08;11.20;99.90
5792;DHT22;2922;53.482;10.006;2023-11-19T07:58:34;11.20;99.90
5792;DHT22;2922;53.482;10.006;2023-11-19T08:01:00;11.30;99.90
5792;DHT22;2922;53.482;10.006;2023-11-19T08:03:25;11.20;99.90
5792;DHT22;2922;53.482;10.006;2023-11-19T08:05:51;11.30;99.90
5792;DHT22;2922;53.482;10.006;2023-11-19T08:08:17;11.30;99.90
5792;DHT22;2922;53.482;10.006;2023-11-19T08:10:43;11.30;99.90
5792;DHT22;2922;53.482;10.006;2023-11-19T08:13:11;11.30;99.90
5792;DHT22;2922;53.482;10.006;2023-11-19T08:15:37;11.30;99.90
5792;DHT22;2922;53.482;10.006;2023-11-19T08:18:03;11.30;99.90
5792;DHT22;2922;53.482;10.006;2023-11-19T08:20:29;11.30;99.90
5792;DHT22;2922;53.482;10.006;2023-11-19T08:22:54;11.30;99.90
5792;DHT22;2922;53.482;10.006;2023-11-19T08:25:20;11.30;99.90
5792;DHT22;2922;53.482;10.006;2023-11-19T08:27:45;11.30;99.90
5792;DHT22;2922;53.482;10.006;2023-11-19T08:30:12;11.30;99.90
5792;DHT22;2922;53.482;10.006;2023-11-19T08:32:38;11.30;99.90
5792;DHT22;2922;53.482;10.006;2023-11-19T08:35:03;11.30;99.90
5792;DHT22;2922;53.482;10.006;2023-11-19T08:37:29;11.30;99.90
5792;DHT22;2922;53.482;10.006;2023-11-19T08:39:55;11.30;99.90
5792;DHT22;2922;53.482;10.006;2023-11-19T08:42:21;11.40;99.90
5792;DHT22;2922;53.482;10.006;2023-11-19T08:44:50;11.40;99.90
5792;DHT22;2922;53.482;10.006;2023-11-19T08:47:19;11.40;99.90
5792;DHT22;2922;53.482;10.006;2023-11-19T08:49:44;11.40;99.90
5792;DHT22;2922;53.482;10.006;2023-11-19T08:52:10;11.50;99.90
5792;DHT22;2922;53.482;10.006;2023-11-19T08:54:36;11.60;99.90
5792;DHT22;2922;53.482;10.006;2023-11-19T08:57:03;11.60;99.90
5792;DHT22;2922;53.482;10.006;2023-11-19T08:59:29;11.70;99.90
5792;DHT22;2922;53.482;10.006;2023-11-19T09:01:54;11.80;99.90
5792;DHT22;2922;53.482;10.006;2023-11-19T09:04:20;11.80;99.90
5792;DHT22;2922;53.482;10.006;2023-11-19T09:06:48;11.70;99.90
5792;DHT22;2922;53.482;10.006;2023-11-19T09:09:14;11.70;99.90
5792;DHT22;2922;53.482;10.006;2023-11-19T09:11:39;11.70;99.90
5792;DHT22;2922;53.482;10.006;2023-11-19T09:14:05;11.70;99.90
5792;DHT22;2922;53.482;10.006;2023-11-19T09:16:31;11.70;99.90
5792;DHT22;2922;53.482;10.006;2023-11-19T09:18:56;11.60;99.90
5792;DHT22;2922;53.482;10.006;2023-11-19T09:21:23;11.60;99.90
5792;DHT22;2922;53.482;10.006;2023-11-19T09:23:48;11.60;99.90
5792;DHT22;2922;53.482;10.006;2023-11-19T09:26:15;11.60;99.90
5792;DHT22;2922;53.482;10.006;2023-11-19T09:28:40;11.60;99.90
5792;DHT22;2922;53.482;10.006;2023-11-19T09:31:16;11.60;99.90
5792;DHT22;2922;53.482;10.006;2023-11-19T09:33:41;11.60;99.90
5792;DHT22;2922;53.482;10.006;2023-11-19T09:36:08;11.60;99.90
5792;DHT22;2922;53.482;10.006;2023-11-19T09:38:34;11.60;99.90
5792;DHT22;2922;53.482;10.006;2023-11-19T09:41:04;11.60;99.90
5792;DHT22;2922;53.482;10.006;2023-11-19T09:43:34;11.60;99.90
5792;DHT22;2922;53.482;10.006;2023-11-19T09:46:04;11.60;99.90
5792;DHT22;2922;53.482;10.006;2023-11-19T09:48:33;11.60;99.90
5792;DHT22;2922;53.482;10.006;2023-11-19T09:50:59;11.60;99.90
5792;DHT22;2922;53.482;10.006;2023-11-19T09:53:25;11.60;99.90
5792;DHT22;2922;53.482;10.006;2023-11-19T09:55:52;11.60;99.90
5792;DHT22;2922;53.482;10.006;2023-11-19T09:58:18;11.60;99.90
5792;DHT22;2922;53.482;10.006;2023-11-19T10:00:44;11.70;99.90
5792;DHT22;2922;53.482;10.006;2023-11-19T10:03:11;11.80;99.90
5792;DHT22;2922;53.482;10.006;2023-11-19T10:05:38;11.80;99.90
5792;DHT22;2922;53.482;10.006;2023-11-19T10:08:05;11.80;99.90
5792;DHT22;2922;53.482;10.006;2023-11-19T10:10:30;11.80;99.90
5792;DHT22;2922;53.482;10.006;2023-11-19T10:12:56;11.70;99.90
5792;DHT22;2922;53.482;10.006;2023-11-19T10:15:23;11.70;99.90
5792;DHT22;2922;53.482;10.006;2023-11-19T10:17:57;11.70;99.90
5792;DHT22;2922;53.482;10.006;2023-11-19T10:20:23;11.70;99.90
5792;DHT22;2922;53.482;10.006;2023-11-19T10:22:53;11.70;99.90
5792;DHT22;2922;53.482;10.006;2023-11-19T10:25:25;11.70;99.90
5792;DHT22;2922;53.482;10.006;2023-11-19T10:27:51;11.70;99.90
5792;DHT22;2922;53.482;10.006;2023-11-19T10:30:19;11.60;99.90
5792;DHT22;2922;53.482;10.006;2023-11-19T10:32:45;11.60;99.90
5792;DHT22;2922;53.482;10.006;2023-11-19T10:35:11;11.60;99.90
5792;DHT22;2922;53.482;10.006;2023-11-19T10:37:37;11.60;99.90
5792;DHT22;2922;53.482;10.006;2023-11-19T10:40:03;11.60;99.90
5792;DHT22;2922;53.482;10.006;2023-11-19T10:42:31;11.60;99.90
5792;DHT22;2922;53.482;10.006;2023-11-19T10:44:56;11.60;99.90
5792;DHT22;2922;53.482;10.006;2023-11-19T10:47:23;11.60;99.90
5792;DHT22;2922;53.482;10.006;2023-11-19T10:49:49;11.60;99.90
5792;DHT22;2922;53.482;10.006;2023-11-19T10:52:18;11.60;99.90
5792;DHT22;2922;53.482;10.006;2023-11-19T10:54:50;11.60;99.90
5792;DHT22;2922;53.482;10.006;2023-11-19T10:57:20;11.60;99.90
5792;DHT22;2922;53.482;10.006;2023-11-19T10:59:52;11.50;99.90
5792;DHT22;2922;53.482;10.006;2023-11-19T11:02:24;11.50;99.90
5792;DHT22;2922;53.482;10.006;2023-11-19T11:04:51;11.50;99.90
5792;DHT22;2922;53.482;10.006;2023-11-19T11:07:21;11.40;99.90
5792;DHT22;2922;53.482;10.006;2023-11-19T11:09:52;11.40;99.90
5792;DHT22;2922;53.482;10.006;2023-11-19T11:12:22;11.40;99.90
5792;DHT22;2922;53.482;10.006;2023-11-19T11:14:49;11.40;99.90
5792;DHT22;2922;53.482;10.006;2023-11-19T11:17:17;11.40;99.90
5792;DHT22;2922;53.482;10.006;2023-11-19T11:19:44;11.40;99.90
5792;DHT22;2922;53.482;10.006;2023-11-19T11:22:11;11.40;99.90
5792;DHT22;2922;53.482;10.006;2023-11-19T11:33:26;11.50;99.90
5792;DHT22;2922;53.482;10.006;2023-11-19T11:36:09;11.50;99.90
5792;DHT22;2922;53.482;10.006;2023-11-19T11:38:40;11.50;99.90
5792;DHT22;2922;53.482;10.006;2023-11-19T11:41:27;11.60;99.90
5792;DHT22;2922;53.482;10.006;2023-11-19T11:43:53;11.60;99.90
5792;DHT22;2922;53.482;10.006;2023-11-19T11:49:00;11.80;99.90
5792;DHT22;2922;53.482;10.006;2023-11-19T11:57:13;12.00;99.90
5792;DHT22;2922;53.482;10.006;2023-11-19T12:02:13;12.10;99.90
5792;DHT22;2922;53.482;10.006;2023-11-19T12:04:42;12.10;99.90
5792;DHT22;2922;53.482;10.006;2023-11-19T12:07:22;12.00;99.90
5792;DHT22;2922;53.482;10.006;2023-11-19T12:09:52;12.00;99.90
5792;DHT22;2922;53.482;10.006;2023-11-19T12:12:26;12.00;99.90
5792;DHT22;2922;53.482;10.006;2023-11-19T12:15:02;12.00;99.90
5792;DHT22;2922;53.482;10.006;2023-11-19T12:20:04;12.10;99.90
5792;DHT22;2922;53.482;10.006;2023-11-19T12:22:31;12.10;99.90
5792;DHT22;2922;53.482;10.006;2023-11-19T12:24:57;12.10;99.90
5792;DHT22;2922;53.482;10.006;2023-11-19T12:27:23;12.10;99.90
5792;DHT22;2922;53.482;10.006;2023-11-19T12:29:49;12.10;99.90
5792;DHT22;2922;53.482;10.006;2023-11-19T12:32:15;12.20;99.90
5792;DHT22;2922;53.482;10.006;2023-11-19T12:34:40;12.20;99.90
5792;DHT22;2922;53.482;10.006;2023-11-19T12:37:06;12.30;99.90
5792;DHT22;2922;53.482;10.006;2023-11-19T12:39:32;12.40;99.90
5792;DHT22;2922;53.482;10.006;2023-11-19T12:41:58;12.40;99.90
5792;DHT22;2922;53.482;10.006;2023-11-19T12:44:26;12.40;99.90
5792;DHT22;2922;53.482;10.006;2023-11-19T12:47:02;12.40;99.90
5792;DHT22;2922;53.482;10.006;2023-11-19T12:49:28;12.40;99.90
5792;DHT22;2922;53.482;10.006;2023-11-19T12:51:54;12.40;99.90
5792;DHT22;2922;53.482;10.006;2023-11-19T12:54:19;12.40;99.90
5792;DHT22;2922;53.482;10.006;2023-11-19T12:56:54;12.40;99.90
5792;DHT22;2922;53.482;10.006;2023-11-19T12:59:20;12.40;99.90
5792;DHT22;2922;53.482;10.006;2023-11-19T13:01:58;12.40;99.90
5792;DHT22;2922;53.482;10.006;2023-11-19T13:04:27;12.40;99.90
5792;DHT22;2922;53.482;10.006;2023-11-19T13:06:53;12.30;99.90
5792;DHT22;2922;53.482;10.006;2023-11-19T13:09:26;12.30;99.90
5792;DHT22;2922;53.482;10.006;2023-11-19T13:11:53;12.30;99.90
5792;DHT22;2922;53.482;10.006;2023-11-19T13:14:20;12.30;99.90
5792;DHT22;2922;53.482;10.006;2023-11-19T13:16:46;12.30;99.90
5792;DHT22;2922;53.482;10.006;2023-11-19T13:19:15;12.40;99.90
5792;DHT22;2922;53.482;10.006;2023-11-19T13:21:42;12.40;99.90
5792;DHT22;2922;53.482;10.006;2023-11-19T13:24:08;12.40;99.90
5792;DHT22;2922;53.482;10.006;2023-11-19T13:26:34;12.40;99.90
5792;DHT22;2922;53.482;10.006;2023-11-19T13:29:00;12.40;99.90
5792;DHT22;2922;53.482;10.006;2023-11-19T13:31:26;12.40;99.90
5792;DHT22;2922;53.482;10.006;2023-11-19T13:33:51;12.30;99.90
5792;DHT22;2922;53.482;10.006;2023-11-19T13:36:17;12.30;99.90
5792;DHT22;2922;53.482;10.006;2023-11-19T13:38:42;12.30;99.90
5792;DHT22;2922;53.482;10.006;2023-11-19T13:41:09;12.30;99.90
5792;DHT22;2922;53.482;10.006;2023-11-19T13:43:37;12.20;99.90
5792;DHT22;2922;53.482;10.006;2023-11-19T13:46:02;12.30;99.90
5792;DHT22;2922;53.482;10.006;2023-11-19T13:48:28;12.30;99.90
5792;DHT22;2922;53.482;10.006;2023-11-19T13:50:55;12.30;99.90
5792;DHT22;2922;53.482;10.006;2023-11-19T13:53:21;12.30;99.90
5792;DHT22;2922;53.482;10.006;2023-11-19T13:55:46;12.30;99.90
5792;DHT22;2922;53.482;10.006;2023-11-19T13:58:13;12.20;99.90
5792;DHT22;2922;53.482;10.006;2023-11-19T14:00:38;12.20;99.90
5792;DHT22;2922;53.482;10.006;2023-11-19T14:03:04;12.20;99.90
5792;DHT22;2922;53.482;10.006;2023-11-19T14:05:30;12.20;99.90
5792;DHT22;2922;53.482;10.006;2023-11-19T14:07:56;12.10;99.90
5792;DHT22;2922;53.482;10.006;2023-11-19T14:10:23;12.10;99.90
5792;DHT22;2922;53.482;10.006;2023-11-19T14:12:49;12.00;99.90
5792;DHT22;2922;53.482;10.006;2023-11-19T14:15:15;12.00;99.90
5792;DHT22;2922;53.482;10.006;2023-11-19T14:17:44;12.00;99.90
5792;DHT22;2922;53.482;10.006;2023-11-19T14:20:10;11.90;99.90
5792;DHT22;2922;53.482;10.006;2023-11-19T14:22:45;11.90;99.90
5792;DHT22;2922;53.482;10.006;2023-11-19T14:25:14;11.80;99.90
5792;DHT22;2922;53.482;10.006;2023-11-19T14:27:41;11.80;99.90
5792;DHT22;2922;53.482;10.006;2023-11-19T14:30:08;11.70;99.90
5792;DHT22;2922;53.482;10.006;2023-11-19T14:32:35;11.70;99.90
5792;DHT22;2922;53.482;10.006;2023-11-19T14:35:01;11.70;99.90
5792;DHT22;2922;53.482;10.006;2023-11-19T14:37:26;11.70;99.90
5792;DHT22;2922;53.482;10.006;2023-11-19T14:39:52;11.70;99.90
5792;DHT22;2922;53.482;10.006;2023-11-19T14:42:17;11.70;99.90
5792;DHT22;2922;53.482;10.006;2023-11-19T14:44:43;11.60;99.90
5792;DHT22;2922;53.482;10.006;2023-11-19T14:47:09;11.60;99.90
5792;DHT22;2922;53.482;10.006;2023-11-19T14:49:35;11.60;99.90
5792;DHT22;2922;53.482;10.006;2023-11-19T14:52:02;11.50;99.90
5792;DHT22;2922;53.482;10.006;2023-11-19T14:54:28;11.50;99.90
5792;DHT22;2922;53.482;10.006;2023-11-19T14:56:54;11.50;99.90
5792;DHT22;2922;53.482;10.006;2023-11-19T14:59:19;11.50;99.90
5792;DHT22;2922;53.482;10.006;2023-11-19T15:01:45;11.50;99.90
5792;DHT22;2922;53.482;10.006;2023-11-19T15:04:11;11.50;99.90
5792;DHT22;2922;53.482;10.006;2023-11-19T15:06:37;11.40;99.90
5792;DHT22;2922;53.482;10.006;2023-11-19T15:09:03;11.40;99.90
5792;DHT22;2922;53.482;10.006;2023-11-19T15:11:29;11.30;99.90
5792;DHT22;2922;53.482;10.006;2023-11-19T15:13:55;11.30;99.90
5792;DHT22;2922;53.482;10.006;2023-11-19T15:16:21;11.30;99.90
5792;DHT22;2922;53.482;10.006;2023-11-19T15:18:58;11.30;99.90
5792;DHT22;2922;53.482;10.006;2023-11-19T15:21:29;11.20;99.90
5792;DHT22;2922;53.482;10.006;2023-11-19T15:23:55;11.20;99.90
5792;DHT22;2922;53.482;10.006;2023-11-19T15:26:21;11.20;99.90
5792;DHT22;2922;53.482;10.006;2023-11-19T15:28:47;11.20;99.90
5792;DHT22;2922;53.482;10.006;2023-11-19T15:31:13;11.20;99.90
5792;DHT22;2922;53.482;10.006;2023-11-19T15:33:40;11.10;99.90
5792;DHT22;2922;53.482;10.006;2023-11-19T15:36:06;11.10;99.90
5792;DHT22;2922;53.482;10.006;2023-11-19T15:38:33;11.10;99.90
5792;DHT22;2922;53.482;10.006;2023-11-19T15:40:59;11.10;99.90
5792;DHT22;2922;53.482;10.006;2023-11-19T15:43:25;11.00;99.90
5792;DHT22;2922;53.482;10.006;2023-11-19T15:45:50;11.00;99.90
5792;DHT22;2922;53.482;10.006;2023-11-19T15:48:16;11.00;99.90
5792;DHT22;2922;53.482;10.006;2023-11-19T15:50:43;11.00;99.90
5792;DHT22;2922;53.482;10.006;2023-11-19T15:53:10;11.00;99.90
5792;DHT22;2922;53.482;10.006;2023-11-19T15:55:36;11.00;99.90
5792;DHT22;2922;53.482;10.006;2023-11-19T15:58:01;11.00;99.90
5792;DHT22;2922;53.482;10.006;2023-11-19T16:00:27;10.90;99.90
5792;DHT22;2922;53.482;10.006;2023-11-19T16:02:53;10.90;99.90
5792;DHT22;2922;53.482;10.006;2023-11-19T16:05:19;10.90;99.90
5792;DHT22;2922;53.482;10.006;2023-11-19T16:07:45;10.90;99.90
5792;DHT22;2922;53.482;10.006;2023-11-19T16:10:11;10.90;99.90
5792;DHT22;2922;53.482;10.006;2023-11-19T16:12:41;10.90;99.90